Terminal Aerodrome Forecast
Issued by NWS

Current Version | Previous Version | Text Only | Print | Product List | Glossary Off
Versions: 1 2 3 4 5 6 7 8 9 10 11 12 13

000
FTUS41 KPBZ 262320
TAFHLG
TAF
KHLG 262320Z 2700/2724 18007KT P6SM -RA BKN080
      TEMPO 2700/2702 5SM -TSRA BKN035CB
     FM270500 20003KT 5SM -RA BR BKN040
     FM271000 VRB05KT 5SM -RA BR BKN025
     FM271600 22010KT P6SM BKN050
      AMD NOT SKED=

USA.gov is the U.S. government's official web portal to all federal, state and local government web resources and services.